Madison, Maine
Current Conditions -  °F | °C
As of 3:55 PM on Thursday 18 Dec 2014 (Local Time) from KWVL Reporting Station
Scattered Clouds Scattered Clouds  
Wind Chill: 24°   Ceiling: Unl
Heat Index: 34°   Visibility: 10mi
Dew Point: 25°   Wind: 16mph
Humidity: 70%   Direction: 340°NNW
Pressure: 29.67"   Gusts: NA
Location:  44.8°N, 69.88°W
Report Text: KWVL 182055Z 34014KT 10SM SCT035 SCT042 01/M04 A2967 RMK AO1 52017
Loading
Personal Weather Stations






























Interactive Weather Map New forecast layout! Learn more

10-Day Weather Forecast

Advertisements
Track Severe Weather on mobile